sensor_id;sensor_type;location;lat;lon;timestamp;temperature;humidity
68912;SHT31;55953;51.650;-0.522;2023-11-19T00:00:22;11.40;87.67
68912;SHT31;55953;51.650;-0.522;2023-11-19T00:03:11;11.34;87.78
68912;SHT31;55953;51.650;-0.522;2023-11-19T00:05:41;11.29;87.77
68912;SHT31;55953;51.650;-0.522;2023-11-19T00:08:09;11.25;87.82
68912;SHT31;55953;51.650;-0.522;2023-11-19T00:10:37;11.20;87.79
68912;SHT31;55953;51.650;-0.522;2023-11-19T00:13:05;11.16;87.75
68912;SHT31;55953;51.650;-0.522;2023-11-19T00:15:34;11.14;87.83
68912;SHT31;55953;51.650;-0.522;2023-11-19T00:18:02;11.11;87.86
68912;SHT31;55953;51.650;-0.522;2023-11-19T00:20:33;11.07;87.83
68912;SHT31;55953;51.650;-0.522;2023-11-19T00:23:01;11.02;87.79
68912;SHT31;55953;51.650;-0.522;2023-11-19T00:25:30;10.98;87.80
68912;SHT31;55953;51.650;-0.522;2023-11-19T00:27:57;10.94;87.75
68912;SHT31;55953;51.650;-0.522;2023-11-19T00:30:27;10.93;87.70
68912;SHT31;55953;51.650;-0.522;2023-11-19T00:32:55;10.90;87.55
68912;SHT31;55953;51.650;-0.522;2023-11-19T00:35:23;10.87;87.54
68912;SHT31;55953;51.650;-0.522;2023-11-19T00:37:50;10.84;87.36
68912;SHT31;55953;51.650;-0.522;2023-11-19T00:40:19;10.83;87.39
68912;SHT31;55953;51.650;-0.522;2023-11-19T00:42:50;10.85;87.40
68912;SHT31;55953;51.650;-0.522;2023-11-19T00:45:18;10.84;87.20
68912;SHT31;55953;51.650;-0.522;2023-11-19T00:47:46;10.86;86.98
68912;SHT31;55953;51.650;-0.522;2023-11-19T00:50:14;10.86;87.04
68912;SHT31;55953;51.650;-0.522;2023-11-19T00:52:42;10.87;87.04
68912;SHT31;55953;51.650;-0.522;2023-11-19T00:55:10;10.85;87.04
68912;SHT31;55953;51.650;-0.522;2023-11-19T00:57:39;10.85;87.16
68912;SHT31;55953;51.650;-0.522;2023-11-19T01:00:08;10.83;87.18
68912;SHT31;55953;51.650;-0.522;2023-11-19T01:02:47;10.83;87.27
68912;SHT31;55953;51.650;-0.522;2023-11-19T01:05:20;10.84;87.21
68912;SHT31;55953;51.650;-0.522;2023-11-19T01:07:51;10.84;87.23
68912;SHT31;55953;51.650;-0.522;2023-11-19T01:10:22;10.80;87.22
68912;SHT31;55953;51.650;-0.522;2023-11-19T01:12:50;10.77;87.32
68912;SHT31;55953;51.650;-0.522;2023-11-19T01:15:17;10.76;87.35
68912;SHT31;55953;51.650;-0.522;2023-11-19T01:17:48;10.76;87.47
68912;SHT31;55953;51.650;-0.522;2023-11-19T01:20:20;10.74;87.49
68912;SHT31;55953;51.650;-0.522;2023-11-19T01:22:49;10.74;87.57
68912;SHT31;55953;51.650;-0.522;2023-11-19T01:25:18;10.74;87.49
68912;SHT31;55953;51.650;-0.522;2023-11-19T01:27:46;10.72;87.47
68912;SHT31;55953;51.650;-0.522;2023-11-19T01:30:14;10.70;87.39
68912;SHT31;55953;51.650;-0.522;2023-11-19T01:32:42;10.71;87.35
68912;SHT31;55953;51.650;-0.522;2023-11-19T01:35:10;10.70;87.34
68912;SHT31;55953;51.650;-0.522;2023-11-19T01:37:38;10.69;87.25
68912;SHT31;55953;51.650;-0.522;2023-11-19T01:40:06;10.69;87.31
68912;SHT31;55953;51.650;-0.522;2023-11-19T01:42:38;10.69;87.21
68912;SHT31;55953;51.650;-0.522;2023-11-19T01:45:07;10.68;87.27
68912;SHT31;55953;51.650;-0.522;2023-11-19T01:47:36;10.63;87.23
68912;SHT31;55953;51.650;-0.522;2023-11-19T01:50:06;10.62;87.30
68912;SHT31;55953;51.650;-0.522;2023-11-19T01:52:36;10.61;87.27
68912;SHT31;55953;51.650;-0.522;2023-11-19T01:55:06;10.61;87.20
68912;SHT31;55953;51.650;-0.522;2023-11-19T01:57:38;10.61;87.09
68912;SHT31;55953;51.650;-0.522;2023-11-19T02:00:08;10.60;87.18
68912;SHT31;55953;51.650;-0.522;2023-11-19T02:02:44;10.60;87.18
68912;SHT31;55953;51.650;-0.522;2023-11-19T02:05:14;10.56;87.15
68912;SHT31;55953;51.650;-0.522;2023-11-19T02:07:42;10.55;87.21
68912;SHT31;55953;51.650;-0.522;2023-11-19T02:10:10;10.53;87.22
68912;SHT31;55953;51.650;-0.522;2023-11-19T02:12:40;10.51;87.12
68912;SHT31;55953;51.650;-0.522;2023-11-19T02:15:10;10.48;87.13
68912;SHT31;55953;51.650;-0.522;2023-11-19T02:17:38;10.48;87.06
68912;SHT31;55953;51.650;-0.522;2023-11-19T02:20:07;10.47;87.01
68912;SHT31;55953;51.650;-0.522;2023-11-19T02:22:36;10.48;87.11
68912;SHT31;55953;51.650;-0.522;2023-11-19T02:25:07;10.52;86.85
68912;SHT31;55953;51.650;-0.522;2023-11-19T02:27:58;10.53;86.81
68912;SHT31;55953;51.650;-0.522;2023-11-19T02:30:28;10.53;86.90
68912;SHT31;55953;51.650;-0.522;2023-11-19T02:32:56;10.52;86.90
68912;SHT31;55953;51.650;-0.522;2023-11-19T02:35:26;10.49;86.90
68912;SHT31;55953;51.650;-0.522;2023-11-19T02:37:54;10.48;87.00
68912;SHT31;55953;51.650;-0.522;2023-11-19T02:40:22;10.49;86.87
68912;SHT31;55953;51.650;-0.522;2023-11-19T02:42:53;10.48;86.84
68912;SHT31;55953;51.650;-0.522;2023-11-19T02:45:23;10.48;86.84
68912;SHT31;55953;51.650;-0.522;2023-11-19T02:47:52;10.51;86.85
68912;SHT31;55953;51.650;-0.522;2023-11-19T02:50:22;10.50;86.70
68912;SHT31;55953;51.650;-0.522;2023-11-19T02:52:54;10.51;86.83
68912;SHT31;55953;51.650;-0.522;2023-11-19T02:55:24;10.51;86.78
68912;SHT31;55953;51.650;-0.522;2023-11-19T02:57:55;10.53;86.75
68912;SHT31;55953;51.650;-0.522;2023-11-19T03:00:26;10.54;86.60
68912;SHT31;55953;51.650;-0.522;2023-11-19T03:03:03;10.54;86.65
68912;SHT31;55953;51.650;-0.522;2023-11-19T03:05:52;10.56;86.63
68912;SHT31;55953;51.650;-0.522;2023-11-19T03:08:20;10.57;86.59
68912;SHT31;55953;51.650;-0.522;2023-11-19T03:10:50;10.59;86.58
68912;SHT31;55953;51.650;-0.522;2023-11-19T03:13:18;10.61;86.61
68912;SHT31;55953;51.650;-0.522;2023-11-19T03:15:46;10.61;86.67
68912;SHT31;55953;51.650;-0.522;2023-11-19T03:18:14;10.64;86.69
68912;SHT31;55953;51.650;-0.522;2023-11-19T03:20:42;10.71;86.68
68912;SHT31;55953;51.650;-0.522;2023-11-19T03:23:10;10.77;86.51
68912;SHT31;55953;51.650;-0.522;2023-11-19T03:25:38;10.79;86.23
68912;SHT31;55953;51.650;-0.522;2023-11-19T03:28:06;10.81;86.35
68912;SHT31;55953;51.650;-0.522;2023-11-19T03:30:34;10.77;86.24
68912;SHT31;55953;51.650;-0.522;2023-11-19T03:33:02;10.74;86.40
68912;SHT31;55953;51.650;-0.522;2023-11-19T03:35:31;10.70;86.39
68912;SHT31;55953;51.650;-0.522;2023-11-19T03:38:00;10.67;86.44
68912;SHT31;55953;51.650;-0.522;2023-11-19T03:40:28;10.64;86.36
68912;SHT31;55953;51.650;-0.522;2023-11-19T03:42:57;10.60;86.46
68912;SHT31;55953;51.650;-0.522;2023-11-19T03:45:28;10.57;86.47
68912;SHT31;55953;51.650;-0.522;2023-11-19T03:47:56;10.52;86.53
68912;SHT31;55953;51.650;-0.522;2023-11-19T03:50:24;10.50;86.61
68912;SHT31;55953;51.650;-0.522;2023-11-19T03:52:51;10.47;86.55
68912;SHT31;55953;51.650;-0.522;2023-11-19T03:55:20;10.45;86.50
68912;SHT31;55953;51.650;-0.522;2023-11-19T03:57:48;10.45;86.50
68912;SHT31;55953;51.650;-0.522;2023-11-19T04:00:16;10.45;86.42
68912;SHT31;55953;51.650;-0.522;2023-11-19T04:02:44;10.45;86.47
68912;SHT31;55953;51.650;-0.522;2023-11-19T04:05:14;10.44;86.59
68912;SHT31;55953;51.650;-0.522;2023-11-19T04:07:42;10.44;86.65
68912;SHT31;55953;51.650;-0.522;2023-11-19T04:10:10;10.44;86.56
68912;SHT31;55953;51.650;-0.522;2023-11-19T04:12:38;10.46;86.57
68912;SHT31;55953;51.650;-0.522;2023-11-19T04:15:06;10.45;86.46
68912;SHT31;55953;51.650;-0.522;2023-11-19T04:17:34;10.47;86.44
68912;SHT31;55953;51.650;-0.522;2023-11-19T04:20:03;10.47;86.51
68912;SHT31;55953;51.650;-0.522;2023-11-19T04:22:31;10.48;86.58
68912;SHT31;55953;51.650;-0.522;2023-11-19T04:24:59;10.48;86.60
68912;SHT31;55953;51.650;-0.522;2023-11-19T04:27:27;10.48;86.72
68912;SHT31;55953;51.650;-0.522;2023-11-19T04:29:56;10.47;86.72
68912;SHT31;55953;51.650;-0.522;2023-11-19T04:32:24;10.45;86.71
68912;SHT31;55953;51.650;-0.522;2023-11-19T04:34:54;10.42;86.75
68912;SHT31;55953;51.650;-0.522;2023-11-19T04:37:21;10.44;86.84
68912;SHT31;55953;51.650;-0.522;2023-11-19T04:39:49;10.48;86.84
68912;SHT31;55953;51.650;-0.522;2023-11-19T04:42:17;10.55;86.81
68912;SHT31;55953;51.650;-0.522;2023-11-19T04:44:45;10.60;86.69
68912;SHT31;55953;51.650;-0.522;2023-11-19T04:47:13;10.61;86.62
68912;SHT31;55953;51.650;-0.522;2023-11-19T04:49:41;10.61;86.59
68912;SHT31;55953;51.650;-0.522;2023-11-19T04:52:10;10.62;86.68
68912;SHT31;55953;51.650;-0.522;2023-11-19T04:54:43;10.67;86.77
68912;SHT31;55953;51.650;-0.522;2023-11-19T04:57:11;10.72;86.66
68912;SHT31;55953;51.650;-0.522;2023-11-19T04:59:39;10.77;86.58
68912;SHT31;55953;51.650;-0.522;2023-11-19T05:02:08;10.82;86.54
68912;SHT31;55953;51.650;-0.522;2023-11-19T05:04:36;10.86;86.48
68912;SHT31;55953;51.650;-0.522;2023-11-19T05:07:08;10.90;86.37
68912;SHT31;55953;51.650;-0.522;2023-11-19T05:09:35;10.92;86.22
68912;SHT31;55953;51.650;-0.522;2023-11-19T05:12:03;10.94;86.30
68912;SHT31;55953;51.650;-0.522;2023-11-19T05:14:31;10.95;86.29
68912;SHT31;55953;51.650;-0.522;2023-11-19T05:16:59;10.96;86.24
68912;SHT31;55953;51.650;-0.522;2023-11-19T05:19:27;10.98;86.20
68912;SHT31;55953;51.650;-0.522;2023-11-19T05:21:55;10.98;86.14
68912;SHT31;55953;51.650;-0.522;2023-11-19T05:24:24;11.02;86.10
68912;SHT31;55953;51.650;-0.522;2023-11-19T05:26:52;11.07;86.05
68912;SHT31;55953;51.650;-0.522;2023-11-19T05:29:20;11.09;85.92
68912;SHT31;55953;51.650;-0.522;2023-11-19T05:31:47;11.10;85.70
68912;SHT31;55953;51.650;-0.522;2023-11-19T05:34:15;11.13;85.67
68912;SHT31;55953;51.650;-0.522;2023-11-19T05:36:43;11.13;85.48
68912;SHT31;55953;51.650;-0.522;2023-11-19T05:39:11;11.10;85.54
68912;SHT31;55953;51.650;-0.522;2023-11-19T05:41:39;11.06;85.37
68912;SHT31;55953;51.650;-0.522;2023-11-19T05:44:07;11.08;85.25
68912;SHT31;55953;51.650;-0.522;2023-11-19T05:46:34;11.12;84.73
68912;SHT31;55953;51.650;-0.522;2023-11-19T05:49:08;11.14;84.45
68912;SHT31;55953;51.650;-0.522;2023-11-19T05:51:37;11.16;84.34
68912;SHT31;55953;51.650;-0.522;2023-11-19T05:54:08;11.10;84.20
68912;SHT31;55953;51.650;-0.522;2023-11-19T05:56:38;11.08;84.31
68912;SHT31;55953;51.650;-0.522;2023-11-19T05:59:06;11.08;84.47
68912;SHT31;55953;51.650;-0.522;2023-11-19T06:01:43;11.09;84.29
68912;SHT31;55953;51.650;-0.522;2023-11-19T06:04:11;11.12;84.31
68912;SHT31;55953;51.650;-0.522;2023-11-19T06:06:39;11.13;84.04
68912;SHT31;55953;51.650;-0.522;2023-11-19T06:09:08;11.15;84.26
68912;SHT31;55953;51.650;-0.522;2023-11-19T06:11:40;11.18;84.20
68912;SHT31;55953;51.650;-0.522;2023-11-19T06:14:08;11.21;83.71
68912;SHT31;55953;51.650;-0.522;2023-11-19T06:16:37;11.24;83.27
68912;SHT31;55953;51.650;-0.522;2023-11-19T06:19:07;11.26;83.16
68912;SHT31;55953;51.650;-0.522;2023-11-19T06:21:36;11.29;83.03
68912;SHT31;55953;51.650;-0.522;2023-11-19T06:24:04;11.31;83.27
68912;SHT31;55953;51.650;-0.522;2023-11-19T06:26:32;11.31;83.20
68912;SHT31;55953;51.650;-0.522;2023-11-19T06:29:00;11.29;83.04
68912;SHT31;55953;51.650;-0.522;2023-11-19T06:31:28;11.24;83.28
68912;SHT31;55953;51.650;-0.522;2023-11-19T06:33:56;11.18;83.41
68912;SHT31;55953;51.650;-0.522;2023-11-19T06:36:24;11.08;83.49
68912;SHT31;55953;51.650;-0.522;2023-11-19T06:38:52;11.00;83.60
68912;SHT31;55953;51.650;-0.522;2023-11-19T06:41:20;10.95;83.64
68912;SHT31;55953;51.650;-0.522;2023-11-19T06:43:48;10.89;83.58
68912;SHT31;55953;51.650;-0.522;2023-11-19T06:46:16;10.86;83.55
68912;SHT31;55953;51.650;-0.522;2023-11-19T06:48:45;10.85;83.46
68912;SHT31;55953;51.650;-0.522;2023-11-19T06:51:13;10.85;83.46
68912;SHT31;55953;51.650;-0.522;2023-11-19T06:53:42;10.80;83.40
68912;SHT31;55953;51.650;-0.522;2023-11-19T06:56:21;10.77;83.48
68912;SHT31;55953;51.650;-0.522;2023-11-19T06:58:51;10.76;83.45
68912;SHT31;55953;51.650;-0.522;2023-11-19T07:01:19;10.75;83.43
68912;SHT31;55953;51.650;-0.522;2023-11-19T07:03:48;10.69;83.44
68912;SHT31;55953;51.650;-0.522;2023-11-19T07:06:17;10.66;83.36
68912;SHT31;55953;51.650;-0.522;2023-11-19T07:08:45;10.65;83.23
68912;SHT31;55953;51.650;-0.522;2023-11-19T07:11:13;10.63;83.20
68912;SHT31;55953;51.650;-0.522;2023-11-19T07:13:43;10.60;83.37
68912;SHT31;55953;51.650;-0.522;2023-11-19T07:16:14;10.57;83.12
68912;SHT31;55953;51.650;-0.522;2023-11-19T07:18:42;10.53;83.23
68912;SHT31;55953;51.650;-0.522;2023-11-19T07:21:11;10.51;83.21
68912;SHT31;55953;51.650;-0.522;2023-11-19T07:23:39;10.50;83.14
68912;SHT31;55953;51.650;-0.522;2023-11-19T07:26:07;10.51;83.34
68912;SHT31;55953;51.650;-0.522;2023-11-19T07:28:36;10.52;83.26
68912;SHT31;55953;51.650;-0.522;2023-11-19T07:31:04;10.55;83.21
68912;SHT31;55953;51.650;-0.522;2023-11-19T07:33:32;10.59;82.91
68912;SHT31;55953;51.650;-0.522;2023-11-19T07:36:00;10.62;82.89
68912;SHT31;55953;51.650;-0.522;2023-11-19T07:38:28;10.59;82.84
68912;SHT31;55953;51.650;-0.522;2023-11-19T07:40:56;10.59;82.73
68912;SHT31;55953;51.650;-0.522;2023-11-19T07:43:24;10.58;82.62
68912;SHT31;55953;51.650;-0.522;2023-11-19T07:45:52;10.52;82.42
68912;SHT31;55953;51.650;-0.522;2023-11-19T07:48:20;10.48;82.65
68912;SHT31;55953;51.650;-0.522;2023-11-19T07:50:52;10.47;82.47
68912;SHT31;55953;51.650;-0.522;2023-11-19T07:53:20;10.51;82.31
68912;SHT31;55953;51.650;-0.522;2023-11-19T07:55:48;10.54;82.22
68912;SHT31;55953;51.650;-0.522;2023-11-19T07:58:16;10.61;82.16
68912;SHT31;55953;51.650;-0.522;2023-11-19T08:00:44;10.69;81.56
68912;SHT31;55953;51.650;-0.522;2023-11-19T08:03:11;10.75;81.39
68912;SHT31;55953;51.650;-0.522;2023-11-19T08:05:40;10.82;81.47
68912;SHT31;55953;51.650;-0.522;2023-11-19T08:08:07;10.85;81.45
68912;SHT31;55953;51.650;-0.522;2023-11-19T08:10:36;10.85;81.19
68912;SHT31;55953;51.650;-0.522;2023-11-19T08:13:03;10.86;81.08
68912;SHT31;55953;51.650;-0.522;2023-11-19T08:15:31;10.85;80.94
68912;SHT31;55953;51.650;-0.522;2023-11-19T08:17:59;10.84;80.74
68912;SHT31;55953;51.650;-0.522;2023-11-19T08:20:27;10.87;81.11
68912;SHT31;55953;51.650;-0.522;2023-11-19T08:22:55;10.87;81.18
68912;SHT31;55953;51.650;-0.522;2023-11-19T08:25:23;10.87;81.16
68912;SHT31;55953;51.650;-0.522;2023-11-19T08:27:51;10.89;80.89
68912;SHT31;55953;51.650;-0.522;2023-11-19T08:30:20;10.93;80.96
68912;SHT31;55953;51.650;-0.522;2023-11-19T08:32:47;10.92;80.90
68912;SHT31;55953;51.650;-0.522;2023-11-19T08:35:15;10.95;80.86
68912;SHT31;55953;51.650;-0.522;2023-11-19T08:37:43;10.93;80.77
68912;SHT31;55953;51.650;-0.522;2023-11-19T08:40:13;10.94;80.60
68912;SHT31;55953;51.650;-0.522;2023-11-19T08:42:44;11.02;80.88
68912;SHT31;55953;51.650;-0.522;2023-11-19T08:45:13;11.07;80.57
68912;SHT31;55953;51.650;-0.522;2023-11-19T08:47:41;11.16;80.68
68912;SHT31;55953;51.650;-0.522;2023-11-19T08:50:09;11.27;80.68
68912;SHT31;55953;51.650;-0.522;2023-11-19T08:52:37;11.36;80.20
68912;SHT31;55953;51.650;-0.522;2023-11-19T08:55:05;11.43;80.43
68912;SHT31;55953;51.650;-0.522;2023-11-19T08:57:33;11.49;80.81
68912;SHT31;55953;51.650;-0.522;2023-11-19T09:00:01;11.51;81.26
68912;SHT31;55953;51.650;-0.522;2023-11-19T09:02:35;11.51;81.77
68912;SHT31;55953;51.650;-0.522;2023-11-19T09:05:05;11.47;82.19
68912;SHT31;55953;51.650;-0.522;2023-11-19T09:07:36;11.41;82.70
68912;SHT31;55953;51.650;-0.522;2023-11-19T09:10:04;11.39;82.97
68912;SHT31;55953;51.650;-0.522;2023-11-19T09:12:33;11.37;83.15
68912;SHT31;55953;51.650;-0.522;2023-11-19T09:15:01;11.35;83.22
68912;SHT31;55953;51.650;-0.522;2023-11-19T09:17:29;11.35;83.32
68912;SHT31;55953;51.650;-0.522;2023-11-19T09:19:57;11.38;83.26
68912;SHT31;55953;51.650;-0.522;2023-11-19T09:22:25;11.45;83.08
68912;SHT31;55953;51.650;-0.522;2023-11-19T09:24:53;11.48;82.87
68912;SHT31;55953;51.650;-0.522;2023-11-19T09:27:21;11.52;82.80
68912;SHT31;55953;51.650;-0.522;2023-11-19T09:29:49;11.54;82.61
68912;SHT31;55953;51.650;-0.522;2023-11-19T09:32:22;11.59;82.52
68912;SHT31;55953;51.650;-0.522;2023-11-19T09:34:50;11.65;82.36
68912;SHT31;55953;51.650;-0.522;2023-11-19T09:37:18;11.73;82.30
68912;SHT31;55953;51.650;-0.522;2023-11-19T09:39:49;11.80;82.03
68912;SHT31;55953;51.650;-0.522;2023-11-19T09:42:17;11.81;81.80
68912;SHT31;55953;51.650;-0.522;2023-11-19T09:44:45;11.82;81.70
68912;SHT31;55953;51.650;-0.522;2023-11-19T09:47:16;11.91;81.53
68912;SHT31;55953;51.650;-0.522;2023-11-19T09:49:46;12.01;81.33
68912;SHT31;55953;51.650;-0.522;2023-11-19T09:52:16;12.12;81.04
68912;SHT31;55953;51.650;-0.522;2023-11-19T09:54:44;12.19;80.97
68912;SHT31;55953;51.650;-0.522;2023-11-19T09:57:12;12.24;81.18
68912;SHT31;55953;51.650;-0.522;2023-11-19T09:59:44;12.31;80.49
68912;SHT31;55953;51.650;-0.522;2023-11-19T10:02:14;12.36;80.20
68912;SHT31;55953;51.650;-0.522;2023-11-19T10:04:44;12.40;79.82
68912;SHT31;55953;51.650;-0.522;2023-11-19T10:07:15;12.49;79.51
68912;SHT31;55953;51.650;-0.522;2023-11-19T10:09:42;12.61;79.02
68912;SHT31;55953;51.650;-0.522;2023-11-19T10:12:11;12.73;78.72
68912;SHT31;55953;51.650;-0.522;2023-11-19T10:14:38;12.82;78.27
68912;SHT31;55953;51.650;-0.522;2023-11-19T10:17:09;12.89;78.23
68912;SHT31;55953;51.650;-0.522;2023-11-19T10:19:36;12.98;78.29
68912;SHT31;55953;51.650;-0.522;2023-11-19T10:22:09;13.02;77.76
68912;SHT31;55953;51.650;-0.522;2023-11-19T10:24:38;13.06;77.23
68912;SHT31;55953;51.650;-0.522;2023-11-19T10:27:15;13.04;77.25
68912;SHT31;55953;51.650;-0.522;2023-11-19T10:29:46;13.00;77.05
68912;SHT31;55953;51.650;-0.522;2023-11-19T10:32:15;13.04;77.74
68912;SHT31;55953;51.650;-0.522;2023-11-19T10:35:06;13.07;76.88
68912;SHT31;55953;51.650;-0.522;2023-11-19T10:37:34;13.16;77.37
68912;SHT31;55953;51.650;-0.522;2023-11-19T10:40:05;13.22;76.95
68912;SHT31;55953;51.650;-0.522;2023-11-19T10:42:33;13.28;76.93
68912;SHT31;55953;51.650;-0.522;2023-11-19T10:45:01;13.33;76.80
68912;SHT31;55953;51.650;-0.522;2023-11-19T10:47:29;13.39;76.63
68912;SHT31;55953;51.650;-0.522;2023-11-19T10:50:03;13.44;76.53
68912;SHT31;55953;51.650;-0.522;2023-11-19T10:52:31;13.48;76.69
68912;SHT31;55953;51.650;-0.522;2023-11-19T10:55:00;13.50;75.94
68912;SHT31;55953;51.650;-0.522;2023-11-19T10:57:33;13.48;76.21
68912;SHT31;55953;51.650;-0.522;2023-11-19T11:00:06;13.50;75.63
68912;SHT31;55953;51.650;-0.522;2023-11-19T11:02:40;13.49;76.05
68912;SHT31;55953;51.650;-0.522;2023-11-19T11:05:12;13.53;75.96
68912;SHT31;55953;51.650;-0.522;2023-11-19T11:07:42;13.54;75.53
68912;SHT31;55953;51.650;-0.522;2023-11-19T11:10:12;13.54;75.02
68912;SHT31;55953;51.650;-0.522;2023-11-19T11:12:43;13.55;74.82
68912;SHT31;55953;51.650;-0.522;2023-11-19T11:15:13;13.56;75.15
68912;SHT31;55953;51.650;-0.522;2023-11-19T11:17:43;13.57;75.15
68912;SHT31;55953;51.650;-0.522;2023-11-19T11:20:13;13.57;74.97
68912;SHT31;55953;51.650;-0.522;2023-11-19T11:29:01;13.47;75.37
68912;SHT31;55953;51.650;-0.522;2023-11-19T11:32:08;13.42;74.86
68912;SHT31;55953;51.650;-0.522;2023-11-19T11:34:57;13.47;75.09
68912;SHT31;55953;51.650;-0.522;2023-11-19T11:38:04;13.54;74.71
68912;SHT31;55953;51.650;-0.522;2023-11-19T11:40:35;13.63;75.01
68912;SHT31;55953;51.650;-0.522;2023-11-19T11:43:03;13.73;74.70
68912;SHT31;55953;51.650;-0.522;2023-11-19T11:45:36;13.82;74.67
68912;SHT31;55953;51.650;-0.522;2023-11-19T11:48:17;13.90;74.27
68912;SHT31;55953;51.650;-0.522;2023-11-19T11:50:52;13.92;73.92
68912;SHT31;55953;51.650;-0.522;2023-11-19T11:53:24;13.94;74.37
68912;SHT31;55953;51.650;-0.522;2023-11-19T11:55:53;14.01;74.15
68912;SHT31;55953;51.650;-0.522;2023-11-19T11:58:28;14.07;73.84
68912;SHT31;55953;51.650;-0.522;2023-11-19T12:00:59;14.08;73.31
68912;SHT31;55953;51.650;-0.522;2023-11-19T12:03:30;14.07;73.37
68912;SHT31;55953;51.650;-0.522;2023-11-19T12:05:59;14.10;73.60
68912;SHT31;55953;51.650;-0.522;2023-11-19T12:08:28;14.14;73.52
68912;SHT31;55953;51.650;-0.522;2023-11-19T12:10:58;14.20;73.56
68912;SHT31;55953;51.650;-0.522;2023-11-19T12:14:09;14.24;73.77
68912;SHT31;55953;51.650;-0.522;2023-11-19T12:16:23;14.19;73.57
68912;SHT31;55953;51.650;-0.522;2023-11-19T12:18:51;14.19;74.12
68912;SHT31;55953;51.650;-0.522;2023-11-19T12:21:27;14.19;74.05
68912;SHT31;55953;51.650;-0.522;2023-11-19T12:23:57;14.20;74.32
68912;SHT31;55953;51.650;-0.522;2023-11-19T12:26:32;14.26;74.25
68912;SHT31;55953;51.650;-0.522;2023-11-19T12:29:02;14.21;74.05
68912;SHT31;55953;51.650;-0.522;2023-11-19T12:31:36;14.13;74.15
68912;SHT31;55953;51.650;-0.522;2023-11-19T12:34:05;14.03;74.13
68912;SHT31;55953;51.650;-0.522;2023-11-19T12:36:34;13.97;74.60
68912;SHT31;55953;51.650;-0.522;2023-11-19T12:39:02;13.98;74.76
68912;SHT31;55953;51.650;-0.522;2023-11-19T12:41:31;14.08;74.82
68912;SHT31;55953;51.650;-0.522;2023-11-19T12:44:08;14.10;74.89
68912;SHT31;55953;51.650;-0.522;2023-11-19T12:46:40;14.06;74.65
68912;SHT31;55953;51.650;-0.522;2023-11-19T12:49:08;14.02;74.88
68912;SHT31;55953;51.650;-0.522;2023-11-19T12:51:39;13.95;74.87
68912;SHT31;55953;51.650;-0.522;2023-11-19T12:54:07;13.89;75.08
68912;SHT31;55953;51.650;-0.522;2023-11-19T12:56:34;13.93;75.34
68912;SHT31;55953;51.650;-0.522;2023-11-19T12:59:10;13.96;75.14
68912;SHT31;55953;51.650;-0.522;2023-11-19T13:01:40;13.97;75.33
68912;SHT31;55953;51.650;-0.522;2023-11-19T13:04:17;13.94;75.40
68912;SHT31;55953;51.650;-0.522;2023-11-19T13:06:46;13.91;75.42
68912;SHT31;55953;51.650;-0.522;2023-11-19T13:09:31;13.86;75.45
68912;SHT31;55953;51.650;-0.522;2023-11-19T13:12:00;13.83;75.57
68912;SHT31;55953;51.650;-0.522;2023-11-19T13:14:42;13.80;75.60
68912;SHT31;55953;51.650;-0.522;2023-11-19T13:17:15;13.81;75.64
68912;SHT31;55953;51.650;-0.522;2023-11-19T13:19:43;13.83;75.53
68912;SHT31;55953;51.650;-0.522;2023-11-19T13:22:15;13.83;75.59
68912;SHT31;55953;51.650;-0.522;2023-11-19T13:24:43;13.81;75.64
68912;SHT31;55953;51.650;-0.522;2023-11-19T13:27:11;13.84;75.58
68912;SHT31;55953;51.650;-0.522;2023-11-19T13:29:40;13.86;75.67
68912;SHT31;55953;51.650;-0.522;2023-11-19T13:32:08;13.88;75.58
68912;SHT31;55953;51.650;-0.522;2023-11-19T13:34:36;13.91;75.58
68912;SHT31;55953;51.650;-0.522;2023-11-19T13:37:04;13.96;75.59
68912;SHT31;55953;51.650;-0.522;2023-11-19T13:39:32;13.95;75.63
68912;SHT31;55953;51.650;-0.522;2023-11-19T13:42:00;13.96;75.72
68912;SHT31;55953;51.650;-0.522;2023-11-19T13:44:31;13.95;75.63
68912;SHT31;55953;51.650;-0.522;2023-11-19T13:46:59;13.97;75.47
68912;SHT31;55953;51.650;-0.522;2023-11-19T13:49:27;13.97;75.57
68912;SHT31;55953;51.650;-0.522;2023-11-19T13:51:55;13.96;75.61
68912;SHT31;55953;51.650;-0.522;2023-11-19T13:54:23;13.97;75.71
68912;SHT31;55953;51.650;-0.522;2023-11-19T13:56:54;13.98;75.81
68912;SHT31;55953;51.650;-0.522;2023-11-19T13:59:25;13.99;75.52
68912;SHT31;55953;51.650;-0.522;2023-11-19T14:01:52;14.01;75.92
68912;SHT31;55953;51.650;-0.522;2023-11-19T14:04:20;14.01;75.64
68912;SHT31;55953;51.650;-0.522;2023-11-19T14:06:48;13.98;75.84
68912;SHT31;55953;51.650;-0.522;2023-11-19T14:09:16;13.96;76.17
68912;SHT31;55953;51.650;-0.522;2023-11-19T14:11:44;13.97;76.38
68912;SHT31;55953;51.650;-0.522;2023-11-19T14:14:12;13.90;76.73
68912;SHT31;55953;51.650;-0.522;2023-11-19T14:16:41;13.86;77.06
68912;SHT31;55953;51.650;-0.522;2023-11-19T14:19:09;13.80;77.20
68912;SHT31;55953;51.650;-0.522;2023-11-19T14:21:36;13.75;77.36
68912;SHT31;55953;51.650;-0.522;2023-11-19T14:24:04;13.68;77.44
68912;SHT31;55953;51.650;-0.522;2023-11-19T14:26:33;13.66;77.40
68912;SHT31;55953;51.650;-0.522;2023-11-19T14:29:00;13.68;77.63
68912;SHT31;55953;51.650;-0.522;2023-11-19T14:31:28;13.69;77.82
68912;SHT31;55953;51.650;-0.522;2023-11-19T14:33:56;13.71;77.65
68912;SHT31;55953;51.650;-0.522;2023-11-19T14:36:25;13.72;77.57
68912;SHT31;55953;51.650;-0.522;2023-11-19T14:38:54;13.70;77.61
68912;SHT31;55953;51.650;-0.522;2023-11-19T14:41:21;13.71;77.86
68912;SHT31;55953;51.650;-0.522;2023-11-19T14:43:49;13.69;78.41
68912;SHT31;55953;51.650;-0.522;2023-11-19T14:46:18;13.60;79.24
68912;SHT31;55953;51.650;-0.522;2023-11-19T14:48:46;13.49;79.78
68912;SHT31;55953;51.650;-0.522;2023-11-19T14:51:14;13.40;80.15
68912;SHT31;55953;51.650;-0.522;2023-11-19T14:53:41;13.37;79.97
68912;SHT31;55953;51.650;-0.522;2023-11-19T14:56:10;13.36;79.88
68912;SHT31;55953;51.650;-0.522;2023-11-19T14:58:40;13.36;79.51
68912;SHT31;55953;51.650;-0.522;2023-11-19T15:01:11;13.41;79.04
68912;SHT31;55953;51.650;-0.522;2023-11-19T15:03:40;13.42;79.15
68912;SHT31;55953;51.650;-0.522;2023-11-19T15:06:11;13.42;79.05
68912;SHT31;55953;51.650;-0.522;2023-11-19T15:08:39;13.45;78.82
68912;SHT31;55953;51.650;-0.522;2023-11-19T15:11:07;13.44;78.94
68912;SHT31;55953;51.650;-0.522;2023-11-19T15:13:36;13.42;79.21
68912;SHT31;55953;51.650;-0.522;2023-11-19T15:16:05;13.38;79.23
68912;SHT31;55953;51.650;-0.522;2023-11-19T15:18:34;13.36;79.49
68912;SHT31;55953;51.650;-0.522;2023-11-19T15:21:02;13.29;79.85
68912;SHT31;55953;51.650;-0.522;2023-11-19T15:23:30;13.23;80.35
68912;SHT31;55953;51.650;-0.522;2023-11-19T15:25:58;13.20;80.53
68912;SHT31;55953;51.650;-0.522;2023-11-19T15:28:26;13.15;80.87
68912;SHT31;55953;51.650;-0.522;2023-11-19T15:30:54;13.10;81.11
68912;SHT31;55953;51.650;-0.522;2023-11-19T15:33:21;13.04;81.22
68912;SHT31;55953;51.650;-0.522;2023-11-19T15:35:49;12.98;81.16